»·PEaware :: N355AA KRDD-KSAC

N355AA :: KRDD-KSAC

FLIGHT INFORMATION

Flight Status: Arrived
Operator: Privately registered:
United States
More flights under this callsign
Pilot: Anthony J. (34383)
Aircraft: PIPER PA-28R-201 ARROW
(P28R)
More flights by this aircraft type
Origin: KRDD Redding Mun
United States
Destination: KSAC Sacramento Executive
United States
More flights between these airports :: More routes between these airports
Route: RBL V23 SAC
File this flight plan on PilotEdge
Remarks:
Altitude:
(Current/Filed)
7,000ft
Speed:
(Current/Filed)
150kts
Departed: 09-Mar-22 04:54 PM
Arrived: 09-Mar-22 05:51 PM
Distance/Time
Traveled:
125nm/0:57
Distance/Time
To Go:
Arrived

Flight Plot

Page will automatically refresh every two minutes.

Flight plan parsing failed; only flown route is shown


Map Options




Map Legend


Flown Route
Filed Route
Departure Airport
Arrival Airport
Navaid (VOR, NDB)
Fix

Horizontal Profiles

Position Reports

Time Latitude Longitude Heading Altitude Ground
Speed
09-Mar-22 16:40 40.508658 -122.297958 4 501ft 0kts
09-Mar-22 16:41 40.508658 -122.297958 4 501ft 0kts
09-Mar-22 16:42 40.508658 -122.297958 4 501ft 0kts
09-Mar-22 16:43 40.508658 -122.297958 4 501ft 0kts
09-Mar-22 16:44 40.508658 -122.297958 4 501ft 0kts
09-Mar-22 16:45 40.508658 -122.297958 4 501ft 0kts
09-Mar-22 16:46 40.508658 -122.297958 4 501ft 0kts
09-Mar-22 16:47 40.508658 -122.297958 4 501ft 0kts
09-Mar-22 16:48 40.508658 -122.297958 4 501ft 0kts
09-Mar-22 16:49 40.508510 -122.297056 45 502ft 5kts
09-Mar-22 16:50 40.512809 -122.296310 1 501ft 20kts
09-Mar-22 16:51 40.519551 -122.296293 359 507ft 15kts
09-Mar-22 16:52 40.520141 -122.296097 52 509ft 0kts
09-Mar-22 16:52 40.520141 -122.296097 52 509ft 0kts
09-Mar-22 16:53 40.518701 -122.294852 179 506ft 51kts
09-Mar-22 16:55 40.489759 -122.293932 171 2175ft 96kts
09-Mar-22 16:56 40.462907 -122.286567 172 3995ft 103kts
09-Mar-22 16:56 40.437876 -122.281621 177 5400ft 114kts
09-Mar-22 16:57 40.404269 -122.277999 181 6973ft 126kts
09-Mar-22 16:58 40.363590 -122.274372 172 7461ft 170kts
09-Mar-22 17:00 40.306618 -122.265720 174 7401ft 180kts
09-Mar-22 17:00 40.264956 -122.259282 171 7420ft 181kts
09-Mar-22 17:01 40.214522 -122.247672 167 7419ft 188kts
09-Mar-22 17:02 40.162431 -122.245156 176 7412ft 187kts
09-Mar-22 17:03 40.109829 -122.239785 174 7408ft 190kts
09-Mar-22 17:04 40.058436 -122.227091 158 7403ft 188kts
09-Mar-22 17:05 40.012096 -122.198558 142 7404ft 185kts
09-Mar-22 17:06 39.965784 -122.167849 161 7402ft 188kts
09-Mar-22 17:07 39.918137 -122.141184 155 7405ft 187kts
09-Mar-22 17:08 39.869777 -122.116291 154 7407ft 187kts
09-Mar-22 17:09 39.821645 -122.091176 153 7404ft 186kts
09-Mar-22 17:10 39.773731 -122.066204 153 7405ft 185kts
09-Mar-22 17:11 39.725884 -122.041279 153 7406ft 185kts
09-Mar-22 17:12 39.678128 -122.016477 153 7404ft 184kts
09-Mar-22 17:13 39.630603 -121.991835 153 7405ft 184kts
09-Mar-22 17:14 39.582858 -121.967096 153 7404ft 183kts
09-Mar-22 17:15 39.535489 -121.942602 153 7403ft 183kts
09-Mar-22 17:16 39.488132 -121.918150 153 7405ft 183kts
09-Mar-22 17:17 39.440922 -121.893802 153 7403ft 182kts
09-Mar-22 17:18 39.393713 -121.869514 153 7404ft 182kts
09-Mar-22 17:19 39.346588 -121.845266 153 7403ft 182kts
09-Mar-22 17:20 39.297874 -121.826127 162 7405ft 184kts
09-Mar-22 17:21 39.248226 -121.809764 161 7416ft 185kts
09-Mar-22 17:22 39.199023 -121.793785 160 7383ft 181kts
09-Mar-22 17:23 39.148807 -121.777469 160 7396ft 184kts
09-Mar-22 17:24 39.098951 -121.761355 160 7404ft 184kts
09-Mar-22 17:25 39.049042 -121.745260 159 7405ft 185kts
09-Mar-22 17:26 38.999100 -121.729138 159 7403ft 185kts
09-Mar-22 17:27 38.949023 -121.713974 157 7403ft 183kts
09-Mar-22 17:28 38.899528 -121.697202 157 7405ft 184kts
09-Mar-22 17:29 38.849775 -121.681131 158 7406ft 184kts
09-Mar-22 17:30 38.800093 -121.665196 158 7403ft 183kts
09-Mar-22 17:31 38.750562 -121.649356 157 7403ft 183kts
09-Mar-22 17:32 38.702798 -121.634997 158 6422ft 172kts
09-Mar-22 17:33 38.657137 -121.619720 158 5258ft 167kts
09-Mar-22 17:34 38.611850 -121.605851 159 4023ft 166kts
09-Mar-22 17:35 38.566571 -121.591181 161 2771ft 167kts
09-Mar-22 17:36 38.522761 -121.577975 162 2317ft 149kts
09-Mar-22 17:37 38.483971 -121.565321 162 2315ft 135kts
09-Mar-22 17:38 38.447157 -121.554090 173 2287ft 137kts
09-Mar-22 17:39 38.408940 -121.554151 177 1837ft 127kts
09-Mar-22 17:40 38.382799 -121.569490 294 1797ft 91kts
09-Mar-22 17:41 38.400226 -121.577372 0 1865ft 69kts
09-Mar-22 17:42 38.418547 -121.571689 30 1836ft 69kts
09-Mar-22 17:43 38.434611 -121.558043 26 1562ft 65kts
09-Mar-22 17:44 38.451058 -121.545014 27 1222ft 74kts
09-Mar-22 17:45 38.467459 -121.531623 27 911ft 78kts
09-Mar-22 17:46 38.489152 -121.518537 11 696ft 86kts
09-Mar-22 17:47 38.511851 -121.509814 33 580ft 93kts
09-Mar-22 17:48 38.531535 -121.489785 67 525ft 89kts
09-Mar-22 17:49 38.515754 -121.491897 220 27ft 51kts
09-Mar-22 17:50 38.513586 -121.494966 260 22ft 0kts
09-Mar-22 17:51 38.513585 -121.495599 272 22ft 9kts
09-Mar-22 17:52 38.514558 -121.498165 225 21ft 0kts

Navigation Log

Ident Type
Flight plan parsing failed, navigation log unavailable